X  Fechar Metar - Info de Aeroporto     EDJA Memmingen Allgau Airport
Temperatura
54°F Temperatura
52°F Ptº Orvalho
94% Humidade



Vento
3 MPH
5 KM/H
1 M/S
3 NÓS



190°
S
Condições Atuais

Muito Nublado Muito Nublado
Pressão 1010.84 (hPa) - 29.85 (inHg)
Visibilidade 6 (milha) - 9.7 (km)
Aeroporto
Código-Aeropoto EDJA

Localização: Memmingen Allgau Airport
Distância: 50 (mi)

Metar:
EDJA 292250Z AUTO 19003KT 9999 // BKN071/// BKN082/// OVC094/// 12/11 Q1011

Hora: 30-05-2024 00:50 CEST